createdAt,value
2017-10-27T00:00:26.343Z,101215
2017-10-27T00:02:54.467Z,101208
2017-10-27T00:05:22.607Z,101205
2017-10-27T00:07:51.146Z,101209
2017-10-27T00:10:20.008Z,101209
2017-10-27T00:12:48.143Z,101204
2017-10-27T00:15:16.256Z,101208
2017-10-27T00:17:44.412Z,101196
2017-10-27T00:20:12.536Z,101196
2017-10-27T00:22:41.391Z,101183
2017-10-27T00:25:09.528Z,101185
2017-10-27T00:27:37.919Z,101190
2017-10-27T00:30:06.060Z,101194
2017-10-27T00:32:34.556Z,101192
2017-10-27T00:35:02.729Z,101181
2017-10-27T00:37:30.851Z,101175
2017-10-27T00:39:58.980Z,101177
2017-10-27T00:42:27.155Z,101181
2017-10-27T00:44:55.292Z,101180
2017-10-27T00:47:24.211Z,101179
2017-10-27T00:49:52.356Z,101176
2017-10-27T00:52:20.502Z,101191
2017-10-27T00:54:49.068Z,101175
2017-10-27T00:57:17.263Z,101178
2017-10-27T00:59:45.514Z,101184
2017-10-27T01:02:13.665Z,101182
2017-10-27T01:04:41.780Z,101171
2017-10-27T01:07:09.984Z,101179
2017-10-27T01:09:38.903Z,101168
2017-10-27T01:12:07.040Z,101189
2017-10-27T01:14:35.216Z,101170
2017-10-27T01:17:03.415Z,101187
2017-10-27T01:19:31.603Z,101174
2017-10-27T01:21:59.824Z,101168
2017-10-27T01:24:28.051Z,101180
2017-10-27T01:26:56.280Z,101167
2017-10-27T01:29:25.555Z,101164
2017-10-27T01:31:53.731Z,101160
2017-10-27T01:34:21.957Z,101160
2017-10-27T01:36:50.160Z,101144
2017-10-27T01:39:18.350Z,101144
2017-10-27T01:41:46.564Z,101142
2017-10-27T01:44:14.724Z,101142
2017-10-27T01:46:43.264Z,101126
2017-10-27T01:49:11.494Z,101115
2017-10-27T01:51:39.792Z,101108
2017-10-27T01:54:08.754Z,101111
2017-10-27T01:56:36.978Z,101120
2017-10-27T01:59:05.179Z,101111
2017-10-27T02:01:33.392Z,101103
2017-10-27T02:04:03.114Z,101103
2017-10-27T02:06:31.304Z,101099
2017-10-27T02:09:00.260Z,101113
2017-10-27T02:11:28.807Z,101107
2017-10-27T02:13:56.996Z,101095
2017-10-27T02:16:25.500Z,101096
2017-10-27T02:18:53.745Z,101090
2017-10-27T02:21:21.980Z,101085
2017-10-27T02:23:50.941Z,101085
2017-10-27T02:26:19.163Z,101087
2017-10-27T02:28:47.336Z,101088
2017-10-27T02:31:15.536Z,101086
2017-10-27T02:33:43.740Z,101086
2017-10-27T02:36:12.698Z,101087
2017-10-27T02:38:40.959Z,101092
2017-10-27T02:41:09.171Z,101084
2017-10-27T02:43:37.322Z,101086
2017-10-27T02:46:05.456Z,101090
2017-10-27T02:48:33.873Z,101099
2017-10-27T02:51:02.008Z,101086
2017-10-27T02:53:30.156Z,101079
2017-10-27T02:55:58.300Z,101083
2017-10-27T02:58:26.439Z,101074
2017-10-27T03:00:54.571Z,101075
2017-10-27T03:03:22.699Z,101076
2017-10-27T03:05:50.821Z,101065
2017-10-27T03:08:18.998Z,101073
2017-10-27T03:10:47.132Z,101068
2017-10-27T03:13:15.584Z,101070
2017-10-27T03:15:44.509Z,101058
2017-10-27T03:18:12.636Z,101072
2017-10-27T03:20:40.775Z,101083
2017-10-27T03:23:08.918Z,101079
2017-10-27T03:25:37.097Z,101075
2017-10-27T03:28:05.251Z,101083
2017-10-27T03:30:34.165Z,101086
2017-10-27T03:33:02.311Z,101093
2017-10-27T03:35:30.439Z,101084
2017-10-27T03:37:59.871Z,101090
2017-10-27T03:40:28.007Z,101084
2017-10-27T03:42:56.159Z,101087
2017-10-27T03:45:24.323Z,101080
2017-10-27T03:47:52.464Z,101087
2017-10-27T03:50:20.651Z,101084
2017-10-27T03:52:49.288Z,101091
2017-10-27T03:55:17.512Z,101094
2017-10-27T03:57:46.456Z,101091
2017-10-27T04:00:14.673Z,101096
2017-10-27T04:02:43.551Z,101100
2017-10-27T04:05:11.726Z,101095
2017-10-27T04:07:40.245Z,101104
2017-10-27T04:10:08.375Z,101106
2017-10-27T04:12:36.480Z,101100
2017-10-27T04:15:05.412Z,101116
2017-10-27T04:17:33.584Z,101108
2017-10-27T04:20:01.723Z,101106
2017-10-27T04:22:29.860Z,101110
2017-10-27T04:24:59.483Z,101121
2017-10-27T04:27:27.639Z,101110
2017-10-27T04:29:55.779Z,101120
2017-10-27T04:32:23.924Z,101124
2017-10-27T04:47:58.488Z,101139
2017-10-27T04:50:26.611Z,101137
2017-10-27T04:52:54.728Z,101122
2017-10-27T04:55:22.879Z,101126
2017-10-27T04:57:51.019Z,101130
2017-10-27T05:00:19.159Z,101128
2017-10-27T05:02:47.303Z,101117
2017-10-27T05:05:16.023Z,101133
2017-10-27T05:07:44.241Z,101130
2017-10-27T05:10:13.535Z,101128
2017-10-27T05:12:42.423Z,101130
2017-10-27T05:15:11.314Z,101125
2017-10-27T05:17:46.000Z,101125
2017-10-27T05:20:19.742Z,101114
2017-10-27T05:22:54.311Z,101127
2017-10-27T05:25:22.436Z,101129
2017-10-27T05:27:50.567Z,101134
2017-10-27T05:30:18.691Z,101133
2017-10-27T05:32:47.581Z,101132
2017-10-27T05:35:16.465Z,101130
2017-10-27T05:37:45.383Z,101132
2017-10-27T05:40:13.530Z,101131
2017-10-27T05:42:41.935Z,101142
2017-10-27T05:45:10.096Z,101140
2017-10-27T05:47:38.263Z,101135
2017-10-27T05:50:07.600Z,101133
2017-10-27T05:52:35.763Z,101145
2017-10-27T05:55:03.928Z,101139
2017-10-27T05:57:32.096Z,101142
2017-10-27T06:00:00.244Z,101157
2017-10-27T06:02:28.376Z,101155
2017-10-27T06:04:56.529Z,101166
2017-10-27T06:07:24.695Z,101156
2017-10-27T06:09:52.836Z,101164
2017-10-27T06:12:21.740Z,101168
2017-10-27T06:14:51.043Z,101178
2017-10-27T06:17:19.895Z,101174
2017-10-27T06:19:48.032Z,101178
2017-10-27T06:22:16.164Z,101175
2017-10-27T06:24:44.300Z,101182
2017-10-27T06:27:12.436Z,101178
2017-10-27T06:29:41.287Z,101185
2017-10-27T06:32:09.399Z,101192
2017-10-27T06:34:38.688Z,101190
2017-10-27T06:37:07.573Z,101192
2017-10-27T06:39:35.742Z,101203
2017-10-27T06:42:03.865Z,101201
2017-10-27T06:44:32.136Z,101198
2017-10-27T06:47:00.524Z,101208
2017-10-27T06:49:28.644Z,101212
2017-10-27T06:51:56.787Z,101204
2017-10-27T06:54:24.918Z,101204
2017-10-27T06:56:54.320Z,101216
2017-10-27T06:59:22.492Z,101228
2017-10-27T07:01:50.615Z,101226
2017-10-27T07:04:18.760Z,101217
2017-10-27T07:06:47.567Z,101233
2017-10-27T07:09:15.976Z,101246
2017-10-27T07:11:44.922Z,101246
2017-10-27T07:14:13.080Z,101236
2017-10-27T07:16:41.235Z,101239
2017-10-27T07:19:10.099Z,101241
2017-10-27T07:21:38.304Z,101242
2017-10-27T07:24:06.484Z,101257
2017-10-27T07:26:35.444Z,101261
2017-10-27T07:29:05.513Z,101263
2017-10-27T07:31:34.147Z,101261
2017-10-27T07:34:03.119Z,101268
2017-10-27T07:36:31.388Z,101262
2017-10-27T07:38:59.591Z,101274
2017-10-27T07:41:28.548Z,101269
2017-10-27T07:43:56.756Z,101284
2017-10-27T07:46:24.934Z,101263
2017-10-27T07:48:54.902Z,101275
2017-10-27T07:51:23.099Z,101279
2017-10-27T07:53:51.328Z,101289
2017-10-27T07:56:20.273Z,101286
2017-10-27T07:58:48.518Z,101294
2017-10-27T08:01:16.756Z,101281
2017-10-27T08:03:45.000Z,101289
2017-10-27T08:06:13.208Z,101300
2017-10-27T08:08:41.891Z,101301
2017-10-27T08:11:10.103Z,101308
2017-10-27T08:13:38.425Z,101311
2017-10-27T08:16:06.628Z,101301
2017-10-27T08:18:35.604Z,101312
2017-10-27T08:21:03.856Z,101322
2017-10-27T08:23:32.071Z,101320
2017-10-27T08:26:01.024Z,101326
2017-10-27T08:28:29.227Z,101326
2017-10-27T08:30:57.868Z,101340
2017-10-27T08:33:26.047Z,101338
2017-10-27T08:35:54.271Z,101330
2017-10-27T08:38:22.701Z,101350
2017-10-27T08:40:50.924Z,101348
2017-10-27T08:43:19.111Z,101356
2017-10-27T08:45:47.302Z,101350
2017-10-27T08:48:15.515Z,101356
2017-10-27T08:50:43.756Z,101358
2017-10-27T08:53:12.418Z,101362
2017-10-27T08:55:40.663Z,101358
2017-10-27T08:58:08.863Z,101374
2017-10-27T09:00:37.070Z,101372
2017-10-27T09:03:05.334Z,101367
2017-10-27T09:05:33.564Z,101371
2017-10-27T09:08:01.792Z,101369
2017-10-27T09:10:30.043Z,101380
2017-10-27T09:12:58.436Z,101382
2017-10-27T09:15:26.656Z,101391
2017-10-27T09:17:54.849Z,101395
2017-10-27T09:20:23.128Z,101388
2017-10-27T09:22:51.319Z,101403
2017-10-27T09:25:19.524Z,101404
2017-10-27T09:27:47.715Z,101410
2017-10-27T09:30:15.887Z,101401
2017-10-27T09:32:44.139Z,101409
2017-10-27T09:35:13.099Z,101416
2017-10-27T09:37:41.365Z,101421
2017-10-27T09:40:09.779Z,101423
2017-10-27T09:42:38.776Z,101432
2017-10-27T09:45:06.992Z,101432
2017-10-27T09:47:35.235Z,101429
2017-10-27T09:50:04.195Z,101436
2017-10-27T09:52:33.003Z,101442
2017-10-27T09:55:01.933Z,101444
2017-10-27T09:57:30.143Z,101461
2017-10-27T09:59:58.372Z,101470
2017-10-27T10:02:26.600Z,101462
2017-10-27T10:04:54.799Z,101462
2017-10-27T10:07:23.760Z,101469
2017-10-27T10:09:52.046Z,101482
2017-10-27T10:12:21.752Z,101490
2017-10-27T10:14:49.987Z,101491
2017-10-27T10:17:18.529Z,101499
2017-10-27T10:19:46.743Z,101503
2017-10-27T10:22:14.927Z,101510
2017-10-27T10:24:43.116Z,101521
2017-10-27T10:27:11.311Z,101519
2017-10-27T10:29:40.295Z,101531
2017-10-27T10:32:08.767Z,101546
2017-10-27T10:34:36.999Z,101538
2017-10-27T10:37:05.941Z,101555
2017-10-27T10:39:34.147Z,101552
2017-10-27T10:42:02.412Z,101558
2017-10-27T10:44:30.651Z,101549
2017-10-27T10:46:58.872Z,101556
2017-10-27T10:49:27.851Z,101557
2017-10-27T10:51:56.672Z,101561
2017-10-27T10:54:24.867Z,101560
2017-10-27T10:56:53.091Z,101565
2017-10-27T10:59:21.305Z,101582
2017-10-27T11:01:49.487Z,101580
2017-10-27T11:04:18.031Z,101589
2017-10-27T11:06:46.263Z,101577
2017-10-27T11:09:14.495Z,101574
2017-10-27T11:11:43.445Z,101572
2017-10-27T11:14:11.681Z,101585
2017-10-27T11:16:40.655Z,101590
2017-10-27T11:19:08.875Z,101592
2017-10-27T11:21:37.092Z,101596
2017-10-27T11:24:05.303Z,101604
2017-10-27T11:26:33.948Z,101584
2017-10-27T11:29:03.917Z,101592
2017-10-27T11:31:32.174Z,101597
2017-10-27T11:34:00.389Z,101599
2017-10-27T11:36:28.603Z,101615
2017-10-27T11:38:56.804Z,101601
2017-10-27T11:41:24.996Z,101601
2017-10-27T11:43:53.215Z,101606
2017-10-27T11:46:21.391Z,101613
2017-10-27T11:48:49.539Z,101618
2017-10-27T11:51:17.748Z,101620
2017-10-27T11:53:46.207Z,101623
2017-10-27T11:57:43.913Z,101637
2017-10-27T12:00:13.978Z,101644
2017-10-27T12:02:42.216Z,101650
2017-10-27T12:05:10.447Z,101640
2017-10-27T12:07:39.139Z,101648
2017-10-27T12:10:07.632Z,101670
2017-10-27T12:12:35.855Z,101672
2017-10-27T12:15:04.088Z,101668
2017-10-27T12:17:32.279Z,101670
2017-10-27T12:20:00.488Z,101678
2017-10-27T12:22:28.703Z,101668
2017-10-27T12:24:56.896Z,101682
2017-10-27T12:27:25.104Z,101678
2017-10-27T12:29:53.647Z,101682
2017-10-27T12:32:21.881Z,101684
2017-10-27T12:34:50.091Z,101675
2017-10-27T12:37:18.308Z,101677
2017-10-27T12:39:46.537Z,101672
2017-10-27T12:42:16.226Z,101680
2017-10-27T12:44:44.709Z,101683
2017-10-27T12:47:12.960Z,101681
2017-10-27T12:49:41.169Z,101691
2017-10-27T12:52:10.420Z,101680
2017-10-27T12:54:38.599Z,101690
2017-10-27T12:57:06.739Z,101674
2017-10-27T12:59:34.896Z,101683
2017-10-27T13:02:03.099Z,101667
2017-10-27T13:04:32.037Z,101700
2017-10-27T13:07:00.209Z,101699
2017-10-27T13:09:28.360Z,101695
2017-10-27T13:11:56.527Z,101707
2017-10-27T13:14:25.680Z,101708
2017-10-27T13:16:54.207Z,101721
2017-10-27T13:19:22.448Z,101723
2017-10-27T13:21:50.688Z,101726
2017-10-27T13:24:18.915Z,101726
2017-10-27T13:26:47.104Z,101729
2017-10-27T13:29:15.308Z,101741
2017-10-27T13:31:43.585Z,101737
2017-10-27T13:34:11.848Z,101742
2017-10-27T13:36:40.051Z,101737
2017-10-27T13:39:08.284Z,101736
2017-10-27T13:41:36.488Z,101738
2017-10-27T13:44:04.729Z,101749
2017-10-27T13:46:34.112Z,101751
2017-10-27T13:49:03.864Z,101745
2017-10-27T13:51:32.067Z,101753
2017-10-27T13:54:00.272Z,101746
2017-10-27T13:56:28.514Z,101756
2017-10-27T13:58:56.765Z,101754
2017-10-27T14:01:25.013Z,101754
2017-10-27T14:03:53.556Z,101744
2017-10-27T14:06:21.800Z,101764
2017-10-27T14:08:50.056Z,101758
2017-10-27T14:11:18.231Z,101755
2017-10-27T14:13:47.227Z,101756
2017-10-27T14:16:15.430Z,101753
2017-10-27T14:18:43.599Z,101765
2017-10-27T14:21:11.799Z,101760
2017-10-27T14:23:40.000Z,101765
2017-10-27T14:26:08.167Z,101773
2017-10-27T14:28:36.626Z,101765
2017-10-27T14:31:04.828Z,101782
2017-10-27T14:33:32.992Z,101784
2017-10-27T14:36:01.123Z,101796
2017-10-27T14:38:29.313Z,101795
2017-10-27T14:40:57.470Z,101800
2017-10-27T14:43:25.607Z,101804
2017-10-27T14:45:53.722Z,101815
2017-10-27T14:48:22.150Z,101810
2017-10-27T14:50:50.282Z,101807
2017-10-27T14:53:18.358Z,101824
2017-10-27T14:55:46.553Z,101816
2017-10-27T14:58:14.642Z,101815
2017-10-27T15:00:42.822Z,101823
2017-10-27T15:03:11.382Z,101818
2017-10-27T15:05:39.451Z,101823
2017-10-27T15:08:07.554Z,101824
2017-10-27T15:10:35.649Z,101817
2017-10-27T15:13:04.482Z,101808
2017-10-27T15:15:32.565Z,101812
2017-10-27T15:18:00.689Z,101819
2017-10-27T15:20:29.529Z,101818
2017-10-27T15:22:57.938Z,101820
2017-10-27T15:25:26.102Z,101823
2017-10-27T15:27:54.634Z,101814
2017-10-27T15:30:22.697Z,101823
2017-10-27T15:32:50.793Z,101822
2017-10-27T15:35:18.875Z,101826
2017-10-27T15:37:46.990Z,101826
2017-10-27T15:40:15.055Z,101823
2017-10-27T15:42:43.126Z,101818
2017-10-27T15:45:11.933Z,101823
2017-10-27T15:47:40.745Z,101820
2017-10-27T15:50:09.013Z,101814
2017-10-27T15:52:37.119Z,101815
2017-10-27T15:55:06.465Z,101817
2017-10-27T15:57:35.278Z,101816
2017-10-27T16:00:03.982Z,101823
2017-10-27T16:02:32.038Z,101822
2017-10-27T16:05:00.106Z,101823
2017-10-27T16:07:28.203Z,101819
2017-10-27T16:09:56.274Z,101818
2017-10-27T16:12:24.377Z,101820
2017-10-27T16:14:52.430Z,101815
2017-10-27T16:17:20.933Z,101823
2017-10-27T16:19:49.054Z,101818
2017-10-27T16:22:17.253Z,101827
2017-10-27T16:24:45.342Z,101827
2017-10-27T16:27:13.597Z,101819
2017-10-27T16:29:41.710Z,101825
2017-10-27T16:32:09.814Z,101825
2017-10-27T16:34:37.885Z,101827
2017-10-27T16:37:05.970Z,101825
2017-10-27T16:39:34.671Z,101835
2017-10-27T16:42:02.746Z,101831
2017-10-27T16:44:30.817Z,101843
2017-10-27T16:46:58.882Z,101849
2017-10-27T16:49:26.954Z,101849
2017-10-27T16:51:55.302Z,101848
2017-10-27T16:54:23.455Z,101858
2017-10-27T16:56:51.673Z,101856
2017-10-27T16:59:19.789Z,101870
2017-10-27T17:01:47.946Z,101861
2017-10-27T17:04:16.093Z,101869
2017-10-27T17:06:44.562Z,101871
2017-10-27T17:09:12.904Z,101871
2017-10-27T17:11:41.356Z,101882
2017-10-27T17:14:09.631Z,101885
2017-10-27T17:16:37.931Z,101893
2017-10-27T17:19:06.604Z,101878
2017-10-27T17:21:34.905Z,101881
2017-10-27T17:24:03.424Z,101882
2017-10-27T17:26:31.656Z,101890
2017-10-27T17:29:00.159Z,101885
2017-10-27T17:31:29.327Z,101879
2017-10-27T17:33:57.731Z,101886
2017-10-27T17:36:26.026Z,101896
2017-10-27T17:38:55.114Z,101887
2017-10-27T17:41:24.249Z,101885
2017-10-27T17:43:52.722Z,101884
2017-10-27T17:46:21.077Z,101885
2017-10-27T17:48:49.394Z,101886
2017-10-27T17:51:17.563Z,101884
2017-10-27T17:53:46.331Z,101880
2017-10-27T17:56:14.673Z,101897
2017-10-27T17:58:42.865Z,101891
2017-10-27T18:01:11.803Z,101881
2017-10-27T18:03:40.398Z,101872
2017-10-27T18:06:08.673Z,101862
2017-10-27T18:08:36.748Z,101871
2017-10-27T18:11:05.265Z,101865
2017-10-27T18:13:33.533Z,101878
2017-10-27T18:16:01.986Z,101870
2017-10-27T18:18:30.966Z,101863
2017-10-27T18:20:59.266Z,101869
2017-10-27T18:23:27.445Z,101869
2017-10-27T18:25:56.035Z,101878
2017-10-27T18:28:24.531Z,101862
2017-10-27T18:30:53.687Z,101871
2017-10-27T18:33:22.135Z,101884
2017-10-27T18:35:50.821Z,101886
2017-10-27T18:38:19.025Z,101882
2017-10-27T18:40:47.350Z,101879
2017-10-27T18:43:16.587Z,101876
2017-10-27T18:45:45.179Z,101884
2017-10-27T18:48:13.768Z,101886
2017-10-27T18:50:42.254Z,101880
2017-10-27T18:53:10.318Z,101888
2017-10-27T18:55:38.425Z,101886
2017-10-27T18:58:06.554Z,101885
2017-10-27T19:00:34.614Z,101889
2017-10-27T19:03:03.516Z,101888
2017-10-27T19:05:31.641Z,101892
2017-10-27T19:07:59.741Z,101875
2017-10-27T19:10:28.218Z,101875
2017-10-27T19:12:56.518Z,101870
2017-10-27T19:15:24.622Z,101872
2017-10-27T19:17:52.707Z,101882
2017-10-27T19:20:20.839Z,101876
2017-10-27T19:22:50.078Z,101878
2017-10-27T19:25:18.191Z,101877
2017-10-27T19:27:47.078Z,101876
2017-10-27T19:30:15.954Z,101870
2017-10-27T19:32:44.549Z,101875
2017-10-27T19:35:12.639Z,101889
2017-10-27T19:37:40.735Z,101879
2017-10-27T19:40:08.825Z,101887
2017-10-27T19:42:36.890Z,101875
2017-10-27T19:45:04.974Z,101885
2017-10-27T19:47:33.054Z,101878
2017-10-27T19:50:01.870Z,101875
2017-10-27T19:52:29.934Z,101862
2017-10-27T19:54:58.481Z,101853
2017-10-27T19:57:26.954Z,101869
2017-10-27T19:59:55.389Z,101850
2017-10-27T20:02:23.450Z,101851
2017-10-27T20:04:51.518Z,101850
2017-10-27T20:07:19.626Z,101840
2017-10-27T20:09:47.729Z,101838
2017-10-27T20:12:15.794Z,101851
2017-10-27T20:14:44.402Z,101848
2017-10-27T20:17:12.481Z,101844
2017-10-27T20:19:42.079Z,101845
2017-10-27T20:22:10.903Z,101859
2017-10-27T20:24:39.174Z,101852
2017-10-27T20:27:07.262Z,101846
2017-10-27T20:29:35.573Z,101844
2017-10-27T20:32:03.718Z,101840
2017-10-27T20:34:31.806Z,101840
2017-10-27T20:37:00.082Z,101838
2017-10-27T20:39:28.458Z,101839
2017-10-27T20:41:56.551Z,101834
2017-10-27T20:44:24.646Z,101819
2017-10-27T20:46:52.751Z,101823
2017-10-27T20:49:21.562Z,101831
2017-10-27T20:51:49.651Z,101816
2017-10-27T20:54:17.754Z,101807
2017-10-27T20:56:46.776Z,101808
2017-10-27T20:59:15.125Z,101814
2017-10-27T21:01:43.255Z,101808
2017-10-27T21:04:11.742Z,101795
2017-10-27T21:06:39.854Z,101797
2017-10-27T21:09:08.069Z,101795
2017-10-27T21:11:36.245Z,101794
2017-10-27T21:14:04.393Z,101783
2017-10-27T21:16:32.479Z,101789
2017-10-27T21:19:01.285Z,101789
2017-10-27T21:21:29.610Z,101794
2017-10-27T21:23:57.718Z,101783
2017-10-27T21:26:26.519Z,101778
2017-10-27T21:28:54.573Z,101774
2017-10-27T21:31:22.626Z,101776
2017-10-27T21:33:50.741Z,101778
2017-10-27T21:36:18.814Z,101767
2017-10-27T21:38:46.890Z,101758
2017-10-27T21:41:14.974Z,101753
2017-10-27T21:43:43.088Z,101752
2017-10-27T21:46:11.174Z,101759
2017-10-27T21:48:39.622Z,101754
2017-10-27T21:51:07.719Z,101735
2017-10-27T21:53:35.956Z,101725
2017-10-27T21:56:04.099Z,101716
2017-10-27T21:58:32.213Z,101724
2017-10-27T22:01:00.764Z,101731
2017-10-27T22:03:28.878Z,101713
2017-10-27T22:05:57.026Z,101720
2017-10-27T22:08:25.131Z,101717
2017-10-27T22:10:53.246Z,101719
2017-10-27T22:13:21.598Z,101724
2017-10-27T22:15:49.702Z,101717
2017-10-27T22:18:17.822Z,101712
2017-10-27T22:20:45.972Z,101722
2017-10-27T22:23:14.022Z,101721
2017-10-27T22:25:42.110Z,101726
2017-10-27T22:28:10.172Z,101726
2017-10-27T22:30:38.265Z,101716
2017-10-27T22:33:06.318Z,101704
2017-10-27T22:35:34.385Z,101698
2017-10-27T22:38:02.638Z,101697
2017-10-27T22:40:30.698Z,101693
2017-10-27T22:42:58.769Z,101693
2017-10-27T22:45:26.854Z,101686
2017-10-27T22:47:54.926Z,101687
2017-10-27T22:50:23.439Z,101678
2017-10-27T22:52:51.526Z,101672
2017-10-27T22:55:19.602Z,101676
2017-10-27T22:57:47.653Z,101670
2017-10-27T23:00:15.742Z,101668
2017-10-27T23:02:44.214Z,101673
2017-10-27T23:05:12.572Z,101668
2017-10-27T23:07:45.606Z,101662
2017-10-27T23:10:13.658Z,101669
2017-10-27T23:12:41.750Z,101650
2017-10-27T23:15:09.805Z,101658
2017-10-27T23:17:37.863Z,101660
2017-10-27T23:20:05.930Z,101629
2017-10-27T23:22:34.338Z,101641
2017-10-27T23:25:02.491Z,101633
2017-10-27T23:27:30.563Z,101637
2017-10-27T23:29:58.617Z,101602
2017-10-27T23:32:26.703Z,101595
2017-10-27T23:34:54.770Z,101607
2017-10-27T23:37:22.817Z,101589
2017-10-27T23:39:51.638Z,101583
2017-10-27T23:42:20.439Z,101574
2017-10-27T23:44:48.526Z,101565
2017-10-27T23:47:16.582Z,101567
2017-10-27T23:49:44.669Z,101583
2017-10-27T23:52:12.738Z,101555
2017-10-27T23:54:40.805Z,101563
2017-10-27T23:57:08.877Z,101553
2017-10-27T23:59:36.952Z,101551
